createdAt,value
2023-03-21T00:06:57.871Z,11.25
2023-03-21T00:14:31.783Z,11.95
2023-03-21T00:30:01.362Z,10.90
2023-03-21T00:37:36.608Z,11.82
2023-03-21T00:45:11.550Z,11.20
2023-03-21T00:52:46.901Z,11.90
2023-03-21T01:00:21.323Z,11.20
2023-03-21T01:07:56.892Z,12.15
2023-03-21T01:15:31.185Z,12.02
2023-03-21T01:23:06.471Z,13.70
2023-03-21T01:30:42.097Z,14.60
2023-03-21T01:38:17.404Z,18.13
2023-03-21T01:46:24.757Z,19.08
2023-03-21T01:54:00.619Z,22.08
2023-03-21T02:01:35.043Z,18.08
2023-03-21T02:09:14.853Z,19.45
2023-03-21T02:16:56.287Z,19.10
2023-03-21T02:24:59.596Z,19.48
2023-03-21T02:32:50.792Z,18.52
2023-03-21T02:40:32.065Z,17.90
2023-03-21T02:48:20.261Z,17.48
2023-03-21T02:56:03.181Z,18.17
2023-03-21T03:03:39.596Z,16.00
2023-03-21T03:11:25.968Z,16.52
2023-03-21T03:19:02.431Z,17.25
2023-03-21T03:26:42.430Z,16.27
2023-03-21T03:34:21.271Z,16.92
2023-03-21T03:42:27.622Z,15.48
2023-03-21T03:50:02.025Z,16.73
2023-03-21T03:57:37.873Z,15.52
2023-03-21T04:05:12.023Z,15.77
2023-03-21T04:12:47.464Z,15.80
2023-03-21T04:20:35.635Z,16.00
2023-03-21T04:28:11.854Z,14.38
2023-03-21T04:35:46.166Z,16.30
2023-03-21T04:43:22.205Z,14.40
2023-03-21T04:50:56.182Z,14.52
2023-03-21T04:58:31.586Z,15.80
2023-03-21T05:06:06.958Z,14.52
2023-03-21T05:13:42.279Z,14.65
2023-03-21T05:21:18.310Z,16.60
2023-03-21T05:28:53.700Z,16.35
2023-03-21T05:36:27.647Z,17.20
2023-03-21T05:44:03.029Z,17.23
2023-03-21T05:51:36.850Z,16.77
2023-03-21T05:59:12.212Z,18.13
2023-03-21T06:06:46.225Z,19.02
2023-03-21T06:22:13.012Z,19.73
2023-03-21T06:29:48.521Z,20.30
2023-03-21T06:37:22.582Z,20.17
2023-03-21T06:44:58.242Z,19.90
2023-03-21T06:52:32.303Z,21.55
2023-03-21T07:00:09.788Z,22.03
2023-03-21T07:07:43.701Z,20.65
2023-03-21T07:15:19.076Z,20.17
2023-03-21T07:22:52.966Z,20.90
2023-03-21T07:30:28.624Z,20.73
2023-03-21T07:38:02.513Z,18.17
2023-03-21T07:45:38.189Z,22.20
2023-03-21T07:53:12.140Z,17.38
2023-03-21T08:00:47.436Z,18.98
2023-03-21T08:08:21.378Z,18.50
2023-03-21T08:23:48.498Z,19.35
2023-03-21T08:31:24.303Z,22.27
2023-03-21T08:39:05.477Z,18.63
2023-03-21T08:46:41.852Z,18.50
2023-03-21T08:54:20.858Z,18.92
2023-03-21T09:01:56.372Z,17.08
2023-03-21T09:17:22.926Z,18.20
2023-03-21T09:24:57.676Z,18.27
2023-03-21T09:32:34.217Z,16.20
2023-03-21T09:40:11.987Z,15.63
2023-03-21T09:47:53.539Z,15.27
2023-03-21T09:55:31.456Z,17.60
2023-03-21T10:03:24.011Z,17.80
2023-03-21T10:11:02.322Z,17.02
2023-03-21T10:18:39.269Z,16.08
2023-03-21T10:26:16.780Z,16.95
2023-03-21T10:33:53.093Z,15.23
2023-03-21T10:41:27.160Z,14.57
2023-03-21T10:49:02.763Z,15.40
2023-03-21T10:56:39.431Z,14.65
2023-03-21T11:04:18.429Z,13.10
2023-03-21T11:11:54.987Z,14.25
2023-03-21T11:19:33.987Z,12.35
2023-03-21T11:27:09.526Z,12.65
2023-03-21T11:34:49.023Z,11.82
2023-03-21T11:42:32.011Z,12.30
2023-03-21T11:50:18.405Z,11.77
2023-03-21T11:58:13.866Z,10.63
2023-03-21T12:05:55.549Z,10.70
2023-03-21T12:13:42.728Z,9.20
2023-03-21T12:21:22.039Z,9.38
2023-03-21T12:29:14.430Z,9.90
2023-03-21T12:37:07.149Z,8.75
2023-03-21T12:44:44.861Z,9.13
2023-03-21T12:52:25.596Z,8.05
2023-03-21T13:00:08.163Z,9.48
2023-03-21T13:07:48.628Z,8.18
2023-03-21T13:15:51.194Z,9.45
2023-03-21T13:23:34.560Z,9.15
2023-03-21T13:31:20.612Z,8.05
2023-03-21T13:39:01.962Z,8.35
2023-03-21T13:46:52.566Z,7.80
2023-03-21T13:54:45.405Z,6.78
2023-03-21T14:02:28.587Z,6.40
2023-03-21T14:10:07.432Z,7.35
2023-03-21T14:17:51.482Z,7.28
2023-03-21T14:25:40.954Z,8.18
2023-03-21T14:33:24.231Z,7.45
2023-03-21T14:40:59.562Z,8.43
2023-03-21T14:48:35.130Z,7.80
2023-03-21T14:56:19.349Z,6.45
2023-03-21T15:03:53.479Z,6.75
2023-03-21T15:11:34.177Z,6.50
2023-03-21T15:19:11.861Z,6.88
2023-03-21T15:26:48.146Z,6.40
2023-03-21T15:34:24.781Z,7.30
2023-03-21T15:42:02.993Z,7.28
2023-03-21T15:49:42.449Z,7.07
2023-03-21T15:57:24.099Z,7.95
2023-03-21T16:05:00.604Z,10.13
2023-03-21T16:12:39.116Z,10.25
2023-03-21T16:20:24.113Z,9.93
2023-03-21T16:27:59.633Z,11.70
2023-03-21T16:35:33.544Z,13.00
2023-03-21T16:43:09.994Z,10.23
2023-03-21T16:50:48.561Z,12.95
2023-03-21T16:58:24.835Z,11.80
2023-03-21T17:05:59.210Z,12.82
2023-03-21T17:13:34.520Z,13.27
2023-03-21T17:21:14.718Z,14.73
2023-03-21T17:28:50.414Z,15.45
2023-03-21T17:36:29.182Z,14.95
2023-03-21T17:44:04.499Z,15.07
2023-03-21T17:51:38.650Z,13.23
2023-03-21T17:59:15.756Z,14.23
2023-03-21T18:06:49.696Z,16.23
2023-03-21T18:14:28.759Z,16.85
2023-03-21T18:22:03.863Z,16.67
2023-03-21T18:30:28.898Z,14.73
2023-03-21T18:37:35.405Z,15.13
2023-03-21T18:45:12.841Z,15.10
2023-03-21T18:52:47.395Z,15.63
2023-03-21T19:00:23.751Z,15.80
2023-03-21T19:07:57.733Z,14.75
2023-03-21T19:15:33.184Z,14.75
2023-03-21T19:23:09.396Z,16.63
2023-03-21T19:30:50.157Z,15.50
2023-03-21T19:38:24.839Z,16.00
2023-03-21T19:46:00.709Z,16.70
2023-03-21T19:53:34.619Z,17.45
2023-03-21T20:01:11.460Z,18.40
2023-03-21T20:16:43.549Z,16.05
2023-03-21T20:24:18.630Z,19.42
2023-03-21T20:39:48.905Z,16.08
2023-03-21T20:47:24.303Z,15.63
2023-03-21T20:54:58.543Z,15.70
2023-03-21T21:02:33.697Z,16.00
2023-03-21T21:10:10.215Z,15.90
2023-03-21T21:18:04.919Z,16.58
2023-03-21T21:33:17.919Z,16.00
2023-03-21T21:40:53.736Z,16.88
2023-03-21T21:48:29.158Z,16.65
2023-03-21T21:56:03.571Z,17.13
2023-03-21T22:03:41.378Z,16.53
2023-03-21T22:11:15.974Z,15.65
2023-03-21T22:18:51.680Z,16.08
2023-03-21T22:26:25.710Z,15.43
2023-03-21T22:34:01.005Z,15.00
2023-03-21T22:41:35.188Z,15.10
2023-03-21T22:49:10.598Z,15.63
2023-03-21T22:56:44.474Z,13.70
2023-03-21T23:04:20.290Z,12.73
2023-03-21T23:11:54.296Z,13.43
2023-03-21T23:19:30.758Z,12.50
2023-03-21T23:27:04.682Z,12.13
2023-03-21T23:34:39.944Z,10.68
2023-03-21T23:42:14.336Z,10.45
2023-03-21T23:49:52.981Z,9.87
2023-03-21T23:57:27.441Z,11.95
